Time;durP1;ratioP1;P1;durP2;ratioP2;P2;SDS_P1;SDS_P2;PMS_P1;PMS_P2;Temp;Humidity;BMP_temperature;BMP_pressure;BME280_temperature;BME280_humidity;BME280_pressure;Samples;Min_cycle;Max_cycle;Signal;HPM_P1;HPM_P2
2021/07/19 00:01:48;;;;;;;10.63;7.83;;;17.10;99.90;;;;;;5035301;28;20448;-51
2021/07/19 00:04:15;;;;;;;9.87;7.80;;;17.00;99.90;;;;;;5040521;28;20453;-51
2021/07/19 00:06:42;;;;;;;9.40;7.13;;;17.10;99.90;;;;;;5035679;28;20510;-51
2021/07/19 00:09:09;;;;;;;10.43;7.97;;;17.10;99.90;;;;;;5035577;28;20468;-50
2021/07/19 00:11:36;;;;;;;10.80;8.27;;;17.10;99.90;;;;;;5035339;28;20502;-51
2021/07/19 00:14:04;;;;;;;13.33;7.93;;;17.10;99.90;;;;;;5037432;28;20498;-51
2021/07/19 00:16:31;;;;;;;14.97;8.47;;;17.10;99.90;;;;;;5054013;28;20995;-51
2021/07/19 00:19:00;;;;;;;9.33;7.37;;;17.00;99.90;;;;;;5037047;28;20515;-51
2021/07/19 00:21:27;;;;;;;9.30;7.43;;;17.00;99.90;;;;;;5035228;28;20499;-51
2021/07/19 00:23:54;;;;;;;11.53;7.23;;;17.00;99.90;;;;;;5041413;28;20447;-51
2021/07/19 00:26:21;;;;;;;10.63;7.40;;;17.00;99.90;;;;;;5043805;28;20496;-51
2021/07/19 00:28:50;;;;;;;10.10;7.37;;;17.00;99.90;;;;;;5048001;28;20472;-51
2021/07/19 00:31:18;;;;;;;11.77;7.83;;;17.00;99.90;;;;;;5052349;28;20537;-50
2021/07/19 00:33:45;;;;;;;10.47;8.00;;;16.90;99.90;;;;;;5051114;28;21018;-51
2021/07/19 00:36:13;;;;;;;10.73;7.47;;;16.80;99.90;;;;;;5053703;28;20479;-50
2021/07/19 00:38:40;;;;;;;9.90;7.93;;;16.80;99.90;;;;;;5051732;28;20467;-51
2021/07/19 00:41:07;;;;;;;14.00;8.23;;;16.80;99.90;;;;;;5034750;28;20456;-51
2021/07/19 00:43:34;;;;;;;13.13;8.60;;;16.70;99.90;;;;;;5036409;28;20449;-51
2021/07/19 00:46:01;;;;;;;13.27;9.20;;;16.70;99.90;;;;;;5053621;28;20451;-51
2021/07/19 00:48:28;;;;;;;10.07;7.50;;;16.70;99.90;;;;;;5054562;28;20467;-51
2021/07/19 00:50:55;;;;;;;11.10;8.13;;;16.70;99.90;;;;;;5054616;28;20455;-51
2021/07/19 00:53:23;;;;;;;10.60;8.30;;;16.80;99.90;;;;;;5040705;28;20514;-51
2021/07/19 00:55:51;;;;;;;12.00;7.80;;;16.70;99.90;;;;;;5045795;28;20533;-51
2021/07/19 00:58:20;;;;;;;9.60;7.80;;;16.70;99.90;;;;;;5054005;28;20482;-51
2021/07/19 01:00:53;;;;;;;10.10;7.23;;;16.70;99.90;;;;;;5054529;28;20444;-52
2021/07/19 01:03:21;;;;;;;11.90;8.80;;;16.70;99.90;;;;;;5042192;28;20456;-51
2021/07/19 01:05:48;;;;;;;9.80;6.87;;;16.70;99.90;;;;;;5034518;28;20445;-51
2021/07/19 01:08:15;;;;;;;9.57;7.50;;;16.70;99.90;;;;;;5034111;28;20950;-51
2021/07/19 01:10:44;;;;;;;9.20;7.50;;;16.70;99.90;;;;;;5047011;28;20452;-50
2021/07/19 01:13:11;;;;;;;10.40;7.37;;;16.70;99.90;;;;;;5044222;28;20882;-52
2021/07/19 01:15:39;;;;;;;9.27;6.80;;;16.70;99.90;;;;;;5051393;28;21005;-51
2021/07/19 01:18:07;;;;;;;11.53;8.23;;;16.70;99.90;;;;;;5053309;28;20501;-51
2021/07/19 01:20:43;;;;;;;11.83;8.30;;;16.60;99.90;;;;;;5034291;28;20510;-51
2021/07/19 01:23:46;;;;;;;12.40;7.60;;;16.70;99.90;;;;;;5032932;28;20530;-52
2021/07/19 01:26:32;;;;;;;9.90;7.27;;;16.70;99.90;;;;;;5033853;28;20436;-51
2021/07/19 01:29:03;;;;;;;10.40;7.77;;;16.70;99.90;;;;;;5038620;28;20871;-51
2021/07/19 01:31:33;;;;;;;11.07;8.27;;;16.60;99.90;;;;;;5053370;28;20443;-51
2021/07/19 01:34:03;;;;;;;11.73;8.40;;;16.60;99.90;;;;;;5034477;28;21183;-51
2021/07/19 01:36:33;;;;;;;11.30;7.00;;;16.60;99.90;;;;;;5033592;28;20485;-51
2021/07/19 01:39:01;;;;;;;11.27;7.67;;;16.50;99.90;;;;;;5034789;28;20468;-51
2021/07/19 01:41:30;;;;;;;11.57;8.30;;;16.50;99.90;;;;;;5033593;28;20548;-51
2021/07/19 01:43:58;;;;;;;12.57;7.83;;;16.50;99.90;;;;;;5048449;28;20456;-51
2021/07/19 01:46:29;;;;;;;8.43;6.50;;;16.50;99.90;;;;;;5042688;28;20448;-51
2021/07/19 01:48:57;;;;;;;9.00;7.00;;;16.50;99.90;;;;;;5033589;28;20880;-51
2021/07/19 01:51:25;;;;;;;10.00;7.87;;;16.50;99.90;;;;;;5050036;28;20456;-51
2021/07/19 01:53:52;;;;;;;8.73;6.80;;;16.50;99.90;;;;;;5048755;28;20888;-52
2021/07/19 01:56:20;;;;;;;14.17;8.00;;;16.50;99.90;;;;;;5045045;28;20472;-51
2021/07/19 01:58:47;;;;;;;8.47;6.50;;;16.50;99.90;;;;;;5071655;22;20483;-58
2021/07/19 02:01:16;;;;;;;9.73;6.43;;;16.40;99.90;;;;;;5012017;28;20943;-58
2021/07/19 02:03:45;;;;;;;8.30;6.80;;;16.40;99.90;;;;;;5011427;28;20504;-58
2021/07/19 02:06:13;;;;;;;9.63;7.07;;;16.40;99.90;;;;;;5012509;28;20449;-58
2021/07/19 02:08:40;;;;;;;9.33;7.00;;;16.40;99.90;;;;;;5013232;28;20454;-57
2021/07/19 02:11:10;;;;;;;7.90;6.80;;;16.30;99.90;;;;;;5013292;28;20951;-58
2021/07/19 02:13:39;;;;;;;8.23;7.23;;;16.30;99.90;;;;;;5011363;28;20523;-58
2021/07/19 02:16:08;;;;;;;8.73;6.87;;;16.30;99.90;;;;;;4994920;28;20741;-58
2021/07/19 02:18:37;;;;;;;7.93;6.60;;;16.30;99.90;;;;;;4995806;28;20446;-57
2021/07/19 02:21:06;;;;;;;10.47;7.23;;;16.30;99.90;;;;;;5013116;28;20507;-58
2021/07/19 02:23:35;;;;;;;8.73;6.73;;;16.30;99.90;;;;;;5011033;28;20512;-58
2021/07/19 02:26:04;;;;;;;8.27;6.40;;;16.30;99.90;;;;;;5012933;28;20449;-58
2021/07/19 02:28:34;;;;;;;8.20;6.20;;;16.30;99.90;;;;;;5012985;28;20505;-58
2021/07/19 02:31:04;;;;;;;8.00;6.20;;;16.20;99.90;;;;;;5012614;28;20507;-58
2021/07/19 02:33:33;;;;;;;6.50;5.77;;;16.10;99.90;;;;;;5012115;28;20460;-57
2021/07/19 02:36:00;;;;;;;7.33;6.47;;;16.10;99.90;;;;;;5012227;28;20477;-58
2021/07/19 02:38:30;;;;;;;7.50;5.80;;;16.10;99.90;;;;;;5011048;28;20895;-58
2021/07/19 02:40:58;;;;;;;7.40;5.73;;;16.10;99.90;;;;;;5012190;28;20527;-57
2021/07/19 02:43:26;;;;;;;7.10;6.10;;;16.00;99.90;;;;;;5012348;28;20445;-57
2021/07/19 02:45:55;;;;;;;8.70;6.43;;;16.00;99.90;;;;;;5012689;28;20864;-58
2021/07/19 02:48:23;;;;;;;6.43;5.50;;;16.00;99.90;;;;;;5012067;28;20450;-57
2021/07/19 02:50:54;;;;;;;8.60;6.83;;;15.90;99.90;;;;;;5011808;28;20466;-57
2021/07/19 02:53:23;;;;;;;7.70;6.07;;;15.90;99.90;;;;;;5012381;28;20454;-58
2021/07/19 02:55:52;;;;;;;8.73;6.20;;;15.90;99.90;;;;;;5012236;28;20517;-58
2021/07/19 02:58:19;;;;;;;8.10;6.53;;;15.90;99.90;;;;;;5012345;28;20500;-58
2021/07/19 03:00:49;;;;;;;9.07;6.67;;;15.90;99.90;;;;;;5012047;28;20550;-57
2021/07/19 03:03:19;;;;;;;7.43;6.37;;;15.90;99.90;;;;;;5012272;28;20450;-57
2021/07/19 03:05:52;;;;;;;11.70;7.73;;;15.90;99.90;;;;;;5011770;28;20595;-57
2021/07/19 03:08:19;;;;;;;11.53;6.70;;;15.80;99.90;;;;;;5004551;28;20511;-58
2021/07/19 03:10:53;;;;;;;9.03;7.00;;;15.80;99.90;;;;;;4998561;28;20529;-57
2021/07/19 03:13:29;;;;;;;11.37;7.77;;;15.80;99.90;;;;;;5008119;28;20456;-57
2021/07/19 03:15:58;;;;;;;11.03;7.77;;;15.60;99.90;;;;;;4992511;28;20489;-57
2021/07/19 03:18:26;;;;;;;11.40;7.77;;;15.60;99.90;;;;;;4992264;28;20450;-56
2021/07/19 03:20:54;;;;;;;9.93;8.10;;;15.50;99.90;;;;;;4994855;28;20482;-55
2021/07/19 03:23:25;;;;;;;12.20;8.83;;;15.50;99.90;;;;;;5004368;28;20450;-55
2021/07/19 03:25:54;;;;;;;13.90;8.30;;;15.50;99.90;;;;;;4999116;28;20445;-55
2021/07/19 03:28:22;;;;;;;12.10;8.27;;;15.60;99.90;;;;;;5011598;28;20453;-56
2021/07/19 03:30:50;;;;;;;12.00;7.50;;;15.60;99.90;;;;;;5009442;28;20482;-56
2021/07/19 03:33:18;;;;;;;15.23;8.63;;;15.60;99.90;;;;;;4992372;28;20462;-55
2021/07/19 03:35:46;;;;;;;9.47;7.70;;;15.60;99.90;;;;;;5004609;28;20484;-57
2021/07/19 03:38:15;;;;;;;12.50;8.47;;;15.50;99.90;;;;;;5012113;28;20484;-57
2021/07/19 03:40:42;;;;;;;12.57;8.10;;;15.50;99.90;;;;;;5010837;28;20469;-57
2021/07/19 03:43:11;;;;;;;10.40;7.60;;;15.50;99.90;;;;;;5011754;28;20507;-57
2021/07/19 03:45:39;;;;;;;11.67;7.57;;;15.50;99.90;;;;;;5011852;28;20512;-57
2021/07/19 03:48:07;;;;;;;14.27;8.07;;;15.50;99.90;;;;;;5011850;28;20936;-57
2021/07/19 03:50:35;;;;;;;9.50;6.60;;;15.50;99.90;;;;;;5011179;28;20484;-57
2021/07/19 03:53:03;;;;;;;12.03;8.17;;;15.50;99.90;;;;;;4991974;28;20454;-57
2021/07/19 03:55:30;;;;;;;13.43;7.27;;;15.60;99.90;;;;;;4991955;28;20454;-57
2021/07/19 03:57:57;;;;;;;10.57;7.70;;;15.60;99.90;;;;;;4992442;28;20450;-57
2021/07/19 04:00:26;;;;;;;12.40;8.87;;;15.60;99.90;;;;;;5010232;28;20900;-57
2021/07/19 04:02:54;;;;;;;12.70;8.33;;;15.50;99.90;;;;;;5010437;28;20457;-57
2021/07/19 04:05:24;;;;;;;13.37;8.57;;;15.60;99.90;;;;;;5011841;28;20478;-57
2021/07/19 04:07:54;;;;;;;10.63;7.90;;;15.50;99.90;;;;;;5011402;28;20449;-57
2021/07/19 04:10:22;;;;;;;17.80;8.63;;;15.50;99.90;;;;;;5011566;28;20505;-57
2021/07/19 04:12:51;;;;;;;7.97;6.20;;;15.50;99.90;;;;;;5010582;28;20485;-57
2021/07/19 04:15:19;;;;;;;12.40;7.97;;;15.60;99.90;;;;;;4995321;28;20540;-57
2021/07/19 04:17:48;;;;;;;9.63;7.33;;;15.60;99.90;;;;;;5010828;28;20555;-57
2021/07/19 04:20:17;;;;;;;11.83;8.80;;;15.60;99.90;;;;;;5011288;28;20477;-57
2021/07/19 04:22:44;;;;;;;11.27;7.97;;;15.60;99.90;;;;;;5000706;28;20449;-57
2021/07/19 04:25:14;;;;;;;13.00;9.50;;;15.60;99.90;;;;;;5010246;28;20458;-57
2021/07/19 04:27:43;;;;;;;14.20;7.77;;;15.60;99.90;;;;;;5011462;28;20453;-57
2021/07/19 04:30:11;;;;;;;11.83;7.40;;;15.70;99.90;;;;;;4995540;28;20498;-57
2021/07/19 04:32:43;;;;;;;16.30;8.77;;;15.60;99.90;;;;;;4995647;28;20601;-57
2021/07/19 04:35:18;;;;;;;17.03;9.17;;;15.60;99.90;;;;;;4995475;28;20450;-56
2021/07/19 04:37:46;;;;;;;13.40;8.83;;;15.70;99.90;;;;;;4995511;28;20572;-57
2021/07/19 04:40:14;;;;;;;12.83;8.27;;;15.70;99.90;;;;;;4995628;28;20481;-57
2021/07/19 04:42:41;;;;;;;13.40;8.43;;;15.90;99.90;;;;;;5014467;28;20449;-57
2021/07/19 04:45:11;;;;;;;10.80;8.40;;;15.90;99.90;;;;;;5014946;28;20868;-57
2021/07/19 04:47:38;;;;;;;16.37;9.10;;;16.00;99.90;;;;;;5012908;28;20446;-57
2021/07/19 04:50:06;;;;;;;9.40;7.23;;;16.20;99.90;;;;;;5013878;28;20477;-57
2021/07/19 04:52:35;;;;;;;13.47;8.23;;;16.40;99.90;;;;;;5011554;28;20457;-57
2021/07/19 04:55:03;;;;;;;17.10;8.13;;;16.40;99.90;;;;;;5013492;28;20947;-57
2021/07/19 04:57:33;;;;;;;12.70;8.23;;;16.60;99.90;;;;;;5014132;28;20481;-57
2021/07/19 05:00:03;;;;;;;10.87;8.30;;;16.80;99.90;;;;;;5014310;28;20473;-57
2021/07/19 05:02:32;;;;;;;9.82;7.40;;;16.90;99.90;;;;;;5011582;28;20446;-57
2021/07/19 05:05:01;;;;;;;11.00;7.80;;;17.10;99.90;;;;;;5014297;28;20211;-57
2021/07/19 05:07:32;;;;;;;28.77;8.33;;;17.40;99.90;;;;;;5011808;28;20449;-57
2021/07/19 05:10:01;;;;;;;10.33;6.50;;;17.90;99.90;;;;;;5013368;28;20505;-58
2021/07/19 05:12:31;;;;;;;11.53;7.07;;;18.60;99.90;;;;;;5011072;28;20449;-59
2021/07/19 05:15:00;;;;;;;10.50;6.50;;;19.20;99.90;;;;;;5010754;28;20884;-56
2021/07/19 05:17:28;;;;;;;7.87;6.27;;;19.60;99.90;;;;;;5008542;28;20606;-57
2021/07/19 05:19:56;;;;;;;13.50;5.93;;;20.20;99.90;;;;;;5013303;28;20566;-57
2021/07/19 05:22:23;;;;;;;8.03;6.20;;;20.80;99.90;;;;;;5012889;28;20449;-57
2021/07/19 05:24:56;;;;;;;13.43;6.50;;;21.40;99.90;;;;;;5013166;28;20527;-57
2021/07/19 05:27:24;;;;;;;8.43;6.00;;;21.80;99.90;;;;;;5009858;28;20438;-56
2021/07/19 05:29:51;;;;;;;9.20;5.97;;;22.10;99.90;;;;;;5012645;28;20470;-56
2021/07/19 05:32:19;;;;;;;7.77;6.40;;;22.10;99.90;;;;;;5002695;28;20501;-57
2021/07/19 05:34:46;;;;;;;9.17;5.57;;;22.00;99.90;;;;;;5013652;28;20867;-57
2021/07/19 05:37:13;;;;;;;9.90;6.70;;;22.10;99.90;;;;;;5011329;28;20546;-57
2021/07/19 05:39:40;;;;;;;9.27;5.60;;;22.40;99.90;;;;;;4993450;28;20474;-56
2021/07/19 05:42:07;;;;;;;7.80;5.83;;;22.50;99.90;;;;;;4993362;28;20451;-57
2021/07/19 05:44:35;;;;;;;9.30;5.90;;;22.90;99.90;;;;;;4994051;28;20454;-56
2021/07/19 05:47:06;;;;;;;7.70;6.00;;;23.20;99.90;;;;;;4994096;28;20980;-57
2021/07/19 05:49:33;;;;;;;6.90;5.80;;;23.40;99.90;;;;;;4994347;28;20466;-57
2021/07/19 05:52:00;;;;;;;6.43;5.30;;;23.30;99.90;;;;;;5012926;28;20945;-57
2021/07/19 05:54:27;;;;;;;12.83;6.23;;;23.40;99.90;;;;;;5002420;28;20593;-57
2021/07/19 05:56:57;;;;;;;9.87;6.53;;;23.70;99.90;;;;;;5006339;28;20522;-57
2021/07/19 05:59:24;;;;;;;7.40;6.10;;;23.70;99.90;;;;;;5013047;28;21196;-57
2021/07/19 06:01:53;;;;;;;9.60;6.90;;;23.70;99.90;;;;;;5011347;28;22444;-57
2021/07/19 06:04:20;;;;;;;6.93;6.00;;;23.70;99.90;;;;;;5009931;28;20831;-57
2021/07/19 06:06:47;;;;;;;8.33;6.43;;;23.40;99.90;;;;;;5005830;28;20465;-57
2021/07/19 06:09:14;;;;;;;8.70;6.10;;;23.60;99.90;;;;;;5008892;28;20540;-57
2021/07/19 06:11:41;;;;;;;10.17;6.90;;;23.90;99.90;;;;;;5011049;28;20515;-57
2021/07/19 06:14:08;;;;;;;9.23;5.73;;;24.10;99.90;;;;;;4999312;28;20493;-56
2021/07/19 06:16:35;;;;;;;7.80;6.07;;;24.40;99.90;;;;;;5004700;28;20490;-57
2021/07/19 06:19:04;;;;;;;6.63;5.83;;;24.80;99.90;;;;;;5010271;28;20477;-57
2021/07/19 06:21:31;;;;;;;10.03;5.73;;;24.90;99.90;;;;;;5004452;28;20450;-57
2021/07/19 06:23:58;;;;;;;7.40;5.93;;;25.10;99.90;;;;;;4992945;28;20455;-58
2021/07/19 06:26:25;;;;;;;7.27;5.93;;;25.30;99.90;;;;;;5007638;28;21017;-58
2021/07/19 06:28:52;;;;;;;6.67;5.40;;;25.80;99.90;;;;;;5012762;28;20449;-58
2021/07/19 06:31:19;;;;;;;7.10;6.07;;;25.50;99.90;;;;;;5012774;28;20515;-58
2021/07/19 06:33:46;;;;;;;7.70;5.40;;;25.30;99.90;;;;;;5012372;28;20904;-59
2021/07/19 06:36:14;;;;;;;8.37;6.10;;;25.20;99.90;;;;;;4998516;28;20463;-57
2021/07/19 06:38:41;;;;;;;7.10;5.80;;;25.60;99.90;;;;;;4992746;28;20482;-59
2021/07/19 06:41:11;;;;;;;8.37;5.30;;;25.90;99.90;;;;;;4992893;28;20875;-58
2021/07/19 06:43:38;;;;;;;6.73;5.30;;;26.30;99.90;;;;;;4992698;28;20520;-58
2021/07/19 06:46:05;;;;;;;7.90;5.23;;;26.50;99.90;;;;;;5005152;28;20450;-58
2021/07/19 06:48:32;;;;;;;7.77;5.47;;;26.60;99.90;;;;;;5012254;28;20450;-59
2021/07/19 06:51:00;;;;;;;8.87;5.70;;;26.20;99.90;;;;;;5011867;28;20534;-58
2021/07/19 06:53:28;;;;;;;8.07;6.20;;;26.00;99.90;;;;;;5011568;28;20541;-58
2021/07/19 06:55:56;;;;;;;6.57;5.73;;;25.80;99.90;;;;;;5011104;28;20511;-58
2021/07/19 06:58:23;;;;;;;7.97;5.87;;;26.40;99.90;;;;;;5011451;28;20514;-59
2021/07/19 07:00:51;;;;;;;10.47;6.23;;;26.30;99.90;;;;;;5012019;28;20539;-58
2021/07/19 07:03:18;;;;;;;7.13;6.33;;;26.20;99.90;;;;;;5011802;28;20453;-59
2021/07/19 07:05:45;;;;;;;7.47;5.60;;;26.40;99.90;;;;;;5011694;28;20453;-58
2021/07/19 07:08:12;;;;;;;10.97;6.30;;;26.90;99.90;;;;;;5012191;28;20887;-60
2021/07/19 07:10:40;;;;;;;6.53;5.90;;;27.40;99.90;;;;;;5011911;28;21045;-59
2021/07/19 07:13:09;;;;;;;8.93;5.97;;;27.70;99.90;;;;;;5011752;28;20971;-59
2021/07/19 07:15:36;;;;;;;8.30;6.17;;;28.00;99.90;;;;;;5003948;28;20459;-59
2021/07/19 07:18:05;;;;;;;7.43;5.97;;;28.20;99.90;;;;;;5010292;28;20540;-60
2021/07/19 07:20:32;;;;;;;6.90;5.70;;;27.70;99.90;;;;;;5010214;28;20473;-59
2021/07/19 07:22:59;;;;;;;7.70;5.73;;;27.50;99.90;;;;;;5001673;28;20508;-59
2021/07/19 07:25:27;;;;;;;8.20;6.37;;;27.80;99.90;;;;;;5009942;28;20453;-59
2021/07/19 07:27:55;;;;;;;7.40;6.10;;;28.50;99.90;;;;;;5011717;28;20857;-59
2021/07/19 07:30:22;;;;;;;9.93;6.40;;;28.60;99.90;;;;;;5011432;28;20470;-59
2021/07/19 07:32:49;;;;;;;8.03;6.70;;;28.80;99.90;;;;;;5008547;28;20843;-60
2021/07/19 07:35:17;;;;;;;7.03;5.93;;;28.50;99.90;;;;;;5011368;28;20453;-59
2021/07/19 07:37:44;;;;;;;8.97;6.23;;;28.90;99.90;;;;;;5011689;28;20907;-59
2021/07/19 07:40:13;;;;;;;10.60;6.80;;;28.90;99.90;;;;;;5011562;28;20477;-60
2021/07/19 07:42:40;;;;;;;6.83;5.70;;;28.50;99.90;;;;;;5011522;28;20457;-59
2021/07/19 07:45:11;;;;;;;6.77;6.07;;;28.90;99.90;;;;;;5011094;28;20606;-60
2021/07/19 07:47:38;;;;;;;7.73;5.90;;;29.00;99.90;;;;;;5010990;28;21012;-61
2021/07/19 07:50:06;;;;;;;7.27;5.77;;;29.30;99.90;;;;;;5011336;28;20469;-62
2021/07/19 07:52:33;;;;;;;7.00;5.77;;;29.60;99.90;;;;;;5005775;28;20454;-62
2021/07/19 07:55:00;;;;;;;6.80;6.03;;;29.90;99.90;;;;;;4999582;28;20507;-61
2021/07/19 07:57:27;;;;;;;10.20;6.43;;;30.00;99.90;;;;;;5011059;28;20533;-62
2021/07/19 07:59:54;;;;;;;6.37;5.60;;;29.90;99.90;;;;;;5040343;23;21223;-53
2021/07/19 08:02:22;;;;;;;8.50;6.43;;;29.30;99.90;;;;;;5027045;28;20453;-53
2021/07/19 08:04:49;;;;;;;7.40;6.40;;;29.50;99.90;;;;;;5027583;28;21005;-53
2021/07/19 08:07:16;;;;;;;7.43;6.30;;;29.90;99.90;;;;;;5015809;28;20508;-54
2021/07/19 08:09:43;;;;;;;8.07;6.37;;;30.00;99.90;;;;;;5015195;28;20528;-54
2021/07/19 08:12:10;;;;;;;8.17;6.10;;;29.80;99.90;;;;;;5020266;28;21074;-54
2021/07/19 08:14:37;;;;;;;10.13;6.10;;;30.00;99.90;;;;;;5034160;28;20906;-53
2021/07/19 08:17:04;;;;;;;7.83;6.10;;;29.80;99.90;;;;;;5034831;28;20503;-54
2021/07/19 08:19:33;;;;;;;11.37;6.87;;;29.90;99.90;;;;;;5033899;28;20476;-54
2021/07/19 08:22:01;;;;;;;8.90;5.93;;;30.10;99.90;;;;;;5034135;28;20455;-53
2021/07/19 08:24:31;;;;;;;7.10;5.80;;;30.10;99.90;;;;;;5014950;28;20450;-54
2021/07/19 08:27:02;;;;;;;7.07;6.10;;;29.50;99.90;;;;;;5034477;28;20484;-53
2021/07/19 08:29:29;;;;;;;7.10;5.73;;;29.50;99.90;;;;;;5032883;28;21063;-54
2021/07/19 08:31:56;;;;;;;8.10;6.30;;;30.00;99.90;;;;;;5025622;28;21005;-54
2021/07/19 08:34:23;;;;;;;6.40;5.80;;;29.70;99.90;;;;;;5015243;28;20457;-54
2021/07/19 08:36:52;;;;;;;8.73;6.33;;;30.00;99.90;;;;;;5015540;28;20869;-54
2021/07/19 08:39:19;;;;;;;6.70;6.10;;;29.70;99.90;;;;;;5034587;28;20538;-54
2021/07/19 08:41:46;;;;;;;7.17;5.60;;;29.80;99.90;;;;;;5034259;28;20456;-54
2021/07/19 08:44:13;;;;;;;10.20;6.90;;;30.00;99.90;;;;;;5022737;28;20490;-53
2021/07/19 08:46:41;;;;;;;6.47;5.87;;;29.40;99.90;;;;;;5023130;28;20883;-54
2021/07/19 08:49:09;;;;;;;7.57;6.00;;;29.40;99.90;;;;;;5034349;28;20448;-55
2021/07/19 08:51:40;;;;;;;9.20;6.70;;;29.70;99.90;;;;;;5034016;28;20498;-54
2021/07/19 08:54:10;;;;;;;6.50;5.83;;;30.00;99.90;;;;;;5033520;28;20456;-54
2021/07/19 08:56:38;;;;;;;8.63;7.00;;;30.40;99.90;;;;;;5034142;28;21205;-55
2021/07/19 08:59:07;;;;;;;8.87;6.30;;;30.30;99.90;;;;;;5023704;28;20538;-53
2021/07/19 09:01:34;;;;;;;8.47;6.50;;;30.60;99.90;;;;;;5014646;28;20453;-53
2021/07/19 09:04:02;;;;;;;7.57;6.80;;;30.70;99.90;;;;;;5028568;28;20460;-53
2021/07/19 09:06:29;;;;;;;7.90;6.40;;;31.00;99.90;;;;;;5034389;28;20873;-53
2021/07/19 09:08:57;;;;;;;7.70;6.90;;;31.10;99.90;;;;;;5034318;28;20437;-53
2021/07/19 09:11:25;;;;;;;7.30;6.53;;;31.20;99.90;;;;;;5034216;28;20942;-53
2021/07/19 09:14:00;;;;;;;7.80;6.63;;;31.20;99.90;;;;;;5033900;28;20453;-54
2021/07/19 09:16:28;;;;;;;9.87;6.57;;;31.40;99.90;;;;;;5031207;28;20804;-53
2021/07/19 09:19:06;;;;;;;9.87;6.70;;;31.60;99.90;;;;;;5033171;28;20476;-53
2021/07/19 09:21:33;;;;;;;12.00;7.70;;;31.20;99.90;;;;;;5033941;28;20498;-53
2021/07/19 09:24:06;;;;;;;11.80;7.57;;;30.60;99.90;;;;;;5033823;28;20503;-55
2021/07/19 09:26:35;;;;;;;10.63;7.10;;;30.20;99.90;;;;;;5034064;28;20448;-54
2021/07/19 09:29:04;;;;;;;9.93;8.60;;;30.50;99.90;;;;;;5033669;28;20448;-54
2021/07/19 09:31:36;;;;;;;10.07;7.73;;;30.20;99.90;;;;;;5033744;28;20449;-54
2021/07/19 09:34:05;;;;;;;12.93;7.90;;;28.60;99.90;;;;;;5033518;28;20448;-54
2021/07/19 09:36:32;;;;;;;10.73;8.20;;;28.60;99.90;;;;;;5030732;28;21210;-54
2021/07/19 09:39:07;;;;;;;8.80;7.77;;;28.10;99.90;;;;;;5032673;28;20276;-54
2021/07/19 09:41:36;;;;;;;10.10;8.67;;;28.40;99.90;;;;;;5033451;28;20444;-53
2021/07/19 09:44:08;;;;;;;11.10;9.20;;;28.10;99.90;;;;;;5031583;28;20449;-54
2021/07/19 09:46:35;;;;;;;14.50;8.30;;;27.20;99.90;;;;;;5024345;28;20452;-55
2021/07/19 09:49:05;;;;;;;10.00;8.27;;;27.10;99.90;;;;;;5029885;28;20495;-54
2021/07/19 09:51:34;;;;;;;12.37;8.57;;;27.30;99.90;;;;;;5027466;28;20527;-54
2021/07/19 09:54:12;;;;;;;10.80;8.10;;;26.80;99.90;;;;;;5032202;28;20444;-54
2021/07/19 09:56:41;;;;;;;10.37;8.93;;;26.60;99.90;;;;;;5032812;28;20870;-53
2021/07/19 09:59:09;;;;;;;10.33;8.03;;;26.50;99.90;;;;;;5032440;28;20480;-54
2021/07/19 10:01:38;;;;;;;8.83;7.83;;;26.40;99.90;;;;;;5021088;28;20456;-53
2021/07/19 10:04:09;;;;;;;12.00;7.80;;;26.80;99.90;;;;;;5032718;28;20455;-54
2021/07/19 10:06:38;;;;;;;10.80;7.77;;;27.00;99.90;;;;;;5024512;28;20449;-54
2021/07/19 10:09:09;;;;;;;11.23;7.70;;;26.90;99.90;;;;;;5013116;28;20450;-55
2021/07/19 10:11:39;;;;;;;11.77;9.03;;;27.00;99.90;;;;;;5013090;28;21021;-54
2021/07/19 10:14:08;;;;;;;8.20;7.03;;;27.50;99.90;;;;;;5012974;28;20453;-54
2021/07/19 10:16:36;;;;;;;9.10;7.60;;;28.10;99.90;;;;;;5012424;28;20512;-54
2021/07/19 10:19:05;;;;;;;8.73;7.23;;;28.30;99.90;;;;;;5023793;28;20480;-55
2021/07/19 10:21:34;;;;;;;15.10;7.83;;;28.10;99.90;;;;;;5032630;28;21184;-54
2021/07/19 10:24:03;;;;;;;9.63;8.00;;;28.30;99.90;;;;;;5032424;28;20444;-54
2021/07/19 10:26:30;;;;;;;10.63;7.73;;;28.80;99.90;;;;;;5032250;28;20452;-56
2021/07/19 10:28:59;;;;;;;9.53;8.03;;;29.20;99.90;;;;;;5032144;28;20868;-53
2021/07/19 10:31:28;;;;;;;10.30;8.47;;;28.70;99.90;;;;;;5028478;28;20587;-55
2021/07/19 10:33:57;;;;;;;9.37;8.17;;;29.10;99.90;;;;;;5012752;28;20959;-57
2021/07/19 10:36:30;;;;;;;10.43;8.30;;;29.10;99.90;;;;;;5028353;28;20453;-54
2021/07/19 10:39:01;;;;;;;10.27;7.93;;;28.80;99.90;;;;;;5032110;28;20492;-54
2021/07/19 10:41:29;;;;;;;9.00;8.10;;;29.00;99.90;;;;;;5032170;28;20502;-54
2021/07/19 10:44:03;;;;;;;11.70;8.80;;;28.50;99.90;;;;;;5029279;28;20466;-54
2021/07/19 10:46:32;;;;;;;9.90;8.80;;;28.00;99.90;;;;;;5012242;28;20456;-54
2021/07/19 10:49:10;;;;;;;8.70;7.80;;;28.10;99.90;;;;;;5012420;28;20445;-55
2021/07/19 10:51:43;;;;;;;9.23;8.23;;;28.00;99.90;;;;;;5014763;28;20471;-54
2021/07/19 10:54:15;;;;;;;8.90;7.97;;;28.00;99.90;;;;;;5014636;28;20461;-54
2021/07/19 10:56:42;;;;;;;9.23;7.80;;;28.10;99.90;;;;;;5030185;28;21115;-54
2021/07/19 10:59:09;;;;;;;11.30;8.80;;;28.10;99.90;;;;;;5031093;28;20904;-53
2021/07/19 11:01:38;;;;;;;9.03;8.10;;;28.00;99.90;;;;;;5015657;28;20519;-53
2021/07/19 11:04:15;;;;;;;9.63;8.37;;;28.00;99.90;;;;;;5012211;28;20457;-52
2021/07/19 11:06:47;;;;;;;12.13;9.00;;;27.50;99.90;;;;;;5012350;28;20540;-53
2021/07/19 11:09:14;;;;;;;9.37;8.37;;;27.40;99.90;;;;;;5012037;28;20485;-52
2021/07/19 11:11:44;;;;;;;15.30;8.77;;;27.70;99.90;;;;;;5030989;28;20444;-54
2021/07/19 11:14:15;;;;;;;9.23;7.70;;;27.80;99.90;;;;;;5030601;28;20444;-52
2021/07/19 11:16:46;;;;;;;10.60;8.90;;;27.30;99.90;;;;;;5032178;28;20450;-52
2021/07/19 11:19:15;;;;;;;9.10;7.80;;;27.60;99.90;;;;;;5031538;28;20538;-53
2021/07/19 11:21:42;;;;;;;11.97;8.27;;;27.30;99.90;;;;;;5031763;28;20460;-52
2021/07/19 11:24:16;;;;;;;9.00;7.90;;;27.40;99.90;;;;;;5031596;28;20448;-54
2021/07/19 11:26:55;;;;;;;11.70;8.10;;;27.80;99.90;;;;;;5030403;28;20484;-52
2021/07/19 11:29:33;;;;;;;9.90;8.20;;;27.60;99.90;;;;;;5031733;28;20534;-54
2021/07/19 11:32:19;;;;;;;11.33;8.67;;;27.50;99.90;;;;;;5031715;28;20444;-53
2021/07/19 11:34:47;;;;;;;11.27;7.90;;;27.20;99.90;;;;;;5031720;28;21004;-53
2021/07/19 11:37:15;;;;;;;11.17;8.13;;;27.20;99.90;;;;;;5030803;28;20457;-54
2021/07/19 11:39:47;;;;;;;10.33;7.87;;;27.70;99.90;;;;;;5031321;28;20851;-53
2021/07/19 11:42:15;;;;;;;12.00;8.47;;;27.60;99.90;;;;;;5011841;28;20512;-54
2021/07/19 11:44:43;;;;;;;11.27;7.77;;;27.40;99.90;;;;;;5011965;28;20454;-54
2021/07/19 11:47:10;;;;;;;9.00;7.57;;;27.60;99.90;;;;;;5017246;28;20502;-53
2021/07/19 11:49:39;;;;;;;11.37;8.60;;;27.70;99.90;;;;;;5031457;28;20477;-52
2021/07/19 11:52:09;;;;;;;9.47;7.93;;;27.60;99.90;;;;;;5031490;28;20506;-54
2021/07/19 11:54:39;;;;;;;11.07;8.13;;;27.10;99.90;;;;;;5031208;28;20995;-55
2021/07/19 11:57:09;;;;;;;14.03;9.07;;;26.80;99.90;;;;;;5017971;28;20544;-54
2021/07/19 11:59:38;;;;;;;12.73;8.60;;;26.60;99.90;;;;;;5011373;28;21069;-54
2021/07/19 12:02:05;;;;;;;12.70;9.03;;;26.70;99.90;;;;;;5011523;28;20507;-52
2021/07/19 12:04:41;;;;;;;13.87;9.00;;;26.70;99.90;;;;;;5011857;28;20511;-54
2021/07/19 12:07:09;;;;;;;10.63;9.10;;;26.80;99.90;;;;;;5030819;28;20448;-52
2021/07/19 12:09:37;;;;;;;13.13;8.20;;;27.00;99.90;;;;;;5031447;28;20468;-52
2021/07/19 12:12:05;;;;;;;9.30;8.17;;;26.90;99.90;;;;;;5029543;28;20479;-53
2021/07/19 12:14:32;;;;;;;13.47;8.20;;;26.60;99.90;;;;;;5030724;28;20804;-52
2021/07/19 12:16:59;;;;;;;11.50;8.47;;;26.70;99.90;;;;;;5031320;28;20498;-54
2021/07/19 12:19:27;;;;;;;11.90;8.80;;;26.70;99.90;;;;;;5031164;28;21021;-52
2021/07/19 12:22:02;;;;;;;10.50;9.03;;;26.80;99.90;;;;;;5031070;28;20966;-53
2021/07/19 12:24:30;;;;;;;11.50;8.10;;;26.90;99.90;;;;;;5030873;28;20549;-55
2021/07/19 12:27:02;;;;;;;13.90;9.10;;;27.30;99.90;;;;;;5030640;28;20514;-53
2021/07/19 12:29:33;;;;;;;11.27;9.10;;;27.40;99.90;;;;;;5031324;28;20473;-53
2021/07/19 12:32:05;;;;;;;10.93;8.30;;;27.00;99.90;;;;;;5029284;28;20449;-53
2021/07/19 12:34:33;;;;;;;12.57;8.80;;;27.00;99.90;;;;;;5015558;28;20454;-53
2021/07/19 12:37:06;;;;;;;10.97;8.80;;;26.80;99.90;;;;;;5014019;28;20453;-53
2021/07/19 12:39:35;;;;;;;12.83;7.83;;;26.70;99.90;;;;;;5030942;28;20503;-54
2021/07/19 12:42:04;;;;;;;11.90;8.77;;;26.80;99.90;;;;;;5030792;28;20502;-54
2021/07/19 12:44:32;;;;;;;13.47;9.47;;;26.80;99.90;;;;;;5031042;28;21194;-52
2021/07/19 12:47:02;;;;;;;12.10;8.37;;;26.70;99.90;;;;;;5026982;28;20453;-53
2021/07/19 12:49:31;;;;;;;11.53;8.83;;;26.80;99.90;;;;;;5030901;28;20543;-54
2021/07/19 12:52:06;;;;;;;12.23;9.50;;;26.70;99.90;;;;;;5033288;28;20441;-53